Time;durP1;ratioP1;P1;durP2;ratioP2;P2;SDS_P1;SDS_P2;PMS_P1;PMS_P2;Temp;Humidity;BMP_temperature;BMP_pressure;BME280_temperature;BME280_humidity;BME280_pressure;Samples;Min_cycle;Max_cycle;Signal;HPM_P1;HPM_P2
2022/07/14 00:01:20;;;;;;;0.63;0.20;;;13.80;99.90;;;;;;4931386;29;20118;-69
2022/07/14 00:03:46;;;;;;;0.63;0.20;;;13.80;99.90;;;;;;4931671;29;20487;-69
2022/07/14 00:06:12;;;;;;;0.38;0.25;;;13.80;99.90;;;;;;4933668;28;20119;-70
2022/07/14 00:08:39;;;;;;;0.77;0.35;;;13.80;99.90;;;;;;4931485;29;20048;-69
2022/07/14 00:11:05;;;;;;;0.45;0.20;;;13.80;99.90;;;;;;4931204;28;20087;-69
2022/07/14 00:13:32;;;;;;;1.10;0.30;;;13.70;99.90;;;;;;4934926;29;20410;-69
2022/07/14 00:15:57;;;;;;;0.38;0.30;;;13.70;99.90;;;;;;4934873;29;20050;-69
2022/07/14 00:18:23;;;;;;;0.50;0.30;;;13.70;99.90;;;;;;4929052;28;20047;-69
2022/07/14 00:20:49;;;;;;;1.10;0.30;;;13.70;99.90;;;;;;4930439;29;20078;-69
2022/07/14 00:23:15;;;;;;;0.68;0.30;;;13.70;99.90;;;;;;4914717;28;20427;-69
2022/07/14 00:25:42;;;;;;;;;;;13.70;99.90;;;;;;4933236;28;20166;-69
2022/07/14 00:28:08;;;;;;;0.52;0.20;;;13.60;99.90;;;;;;4932434;28;20028;-69
2022/07/14 00:30:34;;;;;;;0.75;0.30;;;13.60;99.90;;;;;;4935263;29;20557;-69
2022/07/14 00:32:59;;;;;;;0.77;0.40;;;13.50;99.90;;;;;;4932785;29;20138;-70
2022/07/14 00:35:25;;;;;;;0.73;0.38;;;13.50;99.90;;;;;;4933911;28;20044;-70
2022/07/14 00:37:51;;;;;;;0.30;0.30;;;13.40;99.90;;;;;;4931703;29;20048;-70
2022/07/14 00:40:16;;;;;;;0.90;0.30;;;13.40;99.90;;;;;;4933877;28;20053;-70
2022/07/14 00:42:47;;;;;;;0.85;0.30;;;13.30;99.90;;;;;;4918011;28;20047;-70
2022/07/14 00:45:16;;;;;;;0.82;0.38;;;13.30;99.90;;;;;;4933070;28;20054;-70
2022/07/14 00:47:42;;;;;;;0.73;0.47;;;13.30;99.90;;;;;;4932796;29;20047;-70
2022/07/14 00:50:10;;;;;;;0.68;0.28;;;13.20;99.90;;;;;;4899874;28;20098;-69
2022/07/14 00:52:37;;;;;;;0.55;0.43;;;13.20;99.90;;;;;;4939172;28;20051;-69
2022/07/14 00:55:04;;;;;;;1.30;0.40;;;13.20;99.90;;;;;;4932311;29;20051;-70
2022/07/14 00:57:30;;;;;;;1.38;0.43;;;13.20;99.90;;;;;;4932290;28;20074;-70
2022/07/14 00:59:56;;;;;;;0.43;0.20;;;13.10;99.90;;;;;;4931945;29;20040;-70
2022/07/14 01:02:22;;;;;;;1.13;0.40;;;13.10;99.90;;;;;;4930687;29;21346;-70
2022/07/14 01:04:49;;;;;;;0.70;0.30;;;13.10;99.90;;;;;;4930086;29;20039;-70
2022/07/14 01:07:16;;;;;;;1.00;0.30;;;13.10;99.90;;;;;;4929911;29;20055;-70
2022/07/14 01:09:42;;;;;;;0.38;0.20;;;13.10;99.90;;;;;;4932274;28;20062;-70
2022/07/14 01:12:09;;;;;;;0.57;0.25;;;13.00;99.90;;;;;;4937762;28;20696;-70
2022/07/14 01:14:39;;;;;;;1.00;0.30;;;13.00;99.90;;;;;;4933838;28;20486;-70
2022/07/14 01:17:06;;;;;;;1.10;0.40;;;13.00;99.90;;;;;;4943079;28;20394;-70
2022/07/14 01:19:33;;;;;;;0.38;0.20;;;13.00;99.90;;;;;;4930954;28;20137;-70
2022/07/14 01:21:59;;;;;;;0.52;0.30;;;13.00;99.90;;;;;;4930692;28;20432;-69
2022/07/14 01:24:25;;;;;;;;;;;13.00;99.90;;;;;;4932083;29;20482;-70
2022/07/14 01:26:51;;;;;;;0.45;0.30;;;13.00;99.90;;;;;;4913922;29;20012;-70
2022/07/14 01:29:18;;;;;;;0.77;0.35;;;13.10;99.90;;;;;;4931938;28;20039;-70
2022/07/14 01:31:44;;;;;;;0.70;0.38;;;13.00;99.90;;;;;;4931169;28;20051;-70
2022/07/14 01:34:10;;;;;;;;;;;13.00;99.90;;;;;;4931989;29;20095;-69
2022/07/14 01:36:36;;;;;;;0.47;0.30;;;12.90;99.90;;;;;;4918624;28;19930;-69
2022/07/14 01:39:03;;;;;;;0.60;0.20;;;12.90;99.90;;;;;;4941803;28;20044;-70
2022/07/14 01:41:29;;;;;;;0.75;0.40;;;12.80;99.90;;;;;;4929310;29;20043;-70
2022/07/14 01:43:55;;;;;;;0.45;0.20;;;12.80;99.90;;;;;;4930808;28;20110;-69
2022/07/14 01:46:21;;;;;;;1.13;0.25;;;12.80;99.90;;;;;;4927626;29;20424;-70
2022/07/14 01:48:47;;;;;;;0.30;0.10;;;12.80;99.90;;;;;;4932143;28;20047;-70
2022/07/14 01:51:13;;;;;;;;;;;12.80;99.90;;;;;;4931308;29;20047;-70
2022/07/14 01:53:41;;;;;;;0.43;0.30;;;12.70;99.90;;;;;;4931413;28;19933;-70
2022/07/14 01:56:08;;;;;;;0.43;0.20;;;12.60;99.90;;;;;;4932049;28;20121;-69
2022/07/14 01:58:34;;;;;;;0.63;0.20;;;12.70;99.90;;;;;;4933382;29;20043;-70
2022/07/14 02:03:45;;;;;;;0.57;0.20;;;12.70;99.90;;;;;;4928211;29;20182;-69
2022/07/14 02:06:14;;;;;;;0.35;0.17;;;12.60;99.90;;;;;;4929459;29;20043;-70
2022/07/14 02:08:39;;;;;;;0.40;0.10;;;12.60;99.90;;;;;;4930126;29;20043;-69
2022/07/14 02:13:50;;;;;;;0.20;0.13;;;12.60;99.90;;;;;;4930009;29;20803;-69
2022/07/14 02:16:16;;;;;;;0.68;0.30;;;12.60;99.90;;;;;;4944733;28;20051;-69
2022/07/14 02:18:42;;;;;;;0.10;0.10;;;12.60;99.90;;;;;;4929089;28;20488;-69
2022/07/14 02:21:10;;;;;;;0.57;0.20;;;12.60;99.90;;;;;;4912994;28;20086;-69
2022/07/14 02:23:35;;;;;;;0.10;0.10;;;12.60;99.90;;;;;;4914770;28;20039;-69
2022/07/14 02:26:02;;;;;;;0.40;0.20;;;12.60;99.90;;;;;;4928219;29;20127;-69
2022/07/14 02:28:27;;;;;;;0.40;0.13;;;12.40;99.90;;;;;;4928079;29;20062;-68
2022/07/14 02:30:53;;;;;;;0.95;0.30;;;12.40;99.90;;;;;;4929188;29;20035;-68
2022/07/14 02:33:19;;;;;;;0.38;0.30;;;12.30;99.90;;;;;;4930289;28;20128;-68
2022/07/14 02:35:44;;;;;;;0.40;0.20;;;12.30;99.90;;;;;;4928701;28;21982;-69
2022/07/14 02:38:10;;;;;;;1.15;0.20;;;12.20;99.90;;;;;;4927265;29;20066;-68
2022/07/14 02:40:36;;;;;;;0.88;0.20;;;12.20;99.90;;;;;;4930981;29;20066;-68
2022/07/14 02:43:02;;;;;;;0.50;0.22;;;12.10;99.90;;;;;;4930371;28;20442;-68
2022/07/14 02:45:28;;;;;;;0.20;0.20;;;12.10;99.90;;;;;;4927589;29;20043;-69
2022/07/14 02:47:53;;;;;;;0.40;0.10;;;12.10;99.90;;;;;;4928595;28;20055;-69
2022/07/14 02:50:19;;;;;;;0.20;0.20;;;12.00;99.90;;;;;;4927609;29;20035;-69
2022/07/14 02:52:45;;;;;;;0.70;0.28;;;12.10;99.90;;;;;;4929917;28;20058;-69
2022/07/14 02:55:11;;;;;;;0.22;0.10;;;12.10;99.90;;;;;;4928015;28;20044;-69
2022/07/14 02:57:36;;;;;;;0.32;0.15;;;12.10;99.90;;;;;;4928010;29;20044;-69
2022/07/14 03:00:04;;;;;;;0.47;0.20;;;12.10;99.90;;;;;;4927916;29;21895;-69
2022/07/14 03:02:30;;;;;;;0.10;0.10;;;12.20;99.90;;;;;;4925173;29;20157;-69
2022/07/14 03:04:56;;;;;;;0.45;0.17;;;12.20;99.90;;;;;;4911241;29;20099;-71
2022/07/14 03:07:21;;;;;;;0.13;0.10;;;12.20;99.90;;;;;;4928310;29;20046;-69
2022/07/14 03:09:47;;;;;;;0.25;0.20;;;12.20;99.90;;;;;;4927395;29;20087;-69
2022/07/14 03:12:13;;;;;;;1.15;0.10;;;12.20;99.90;;;;;;4929004;29;20094;-69
2022/07/14 03:14:39;;;;;;;0.32;0.20;;;12.20;99.90;;;;;;4928541;29;20153;-68
2022/07/14 03:17:04;;;;;;;0.60;0.20;;;12.30;99.90;;;;;;4927859;29;20040;-69
2022/07/14 03:19:30;;;;;;;0.30;0.20;;;12.20;99.90;;;;;;4929121;28;20134;-68
2022/07/14 03:21:56;;;;;;;0.15;0.15;;;12.10;99.90;;;;;;4930047;29;20051;-69
2022/07/14 03:24:21;;;;;;;0.52;0.20;;;12.10;99.90;;;;;;4928124;29;20047;-70
2022/07/14 03:26:47;;;;;;;0.88;0.28;;;12.00;99.90;;;;;;4929612;29;20039;-69
2022/07/14 03:29:13;;;;;;;0.52;0.22;;;12.10;99.90;;;;;;4926471;29;20052;-69
2022/07/14 03:31:39;;;;;;;0.20;0.20;;;12.00;99.90;;;;;;4927454;28;20047;-69
2022/07/14 03:34:05;;;;;;;0.50;0.30;;;12.00;99.90;;;;;;4926582;29;21594;-69
2022/07/14 03:36:31;;;;;;;1.35;0.30;;;12.00;99.90;;;;;;4927740;28;20062;-69
2022/07/14 03:38:56;;;;;;;0.35;0.13;;;12.00;99.90;;;;;;4929223;29;20043;-69
2022/07/14 03:41:22;;;;;;;0.63;0.20;;;12.00;99.90;;;;;;4937652;28;20372;-69
2022/07/14 03:43:48;;;;;;;0.90;0.20;;;11.90;99.90;;;;;;4927207;29;20062;-69
2022/07/14 03:46:14;;;;;;;0.30;0.10;;;11.90;99.90;;;;;;4927110;29;20043;-69
2022/07/14 03:48:39;;;;;;;0.77;0.30;;;11.80;99.90;;;;;;4943120;28;20044;-70
2022/07/14 03:51:06;;;;;;;0.28;0.20;;;11.80;99.90;;;;;;4927449;29;20094;-69
2022/07/14 03:53:32;;;;;;;0.20;0.20;;;11.80;99.90;;;;;;4926625;29;20186;-69
2022/07/14 03:55:59;;;;;;;0.10;0.10;;;11.80;99.90;;;;;;4927377;29;20154;-69
2022/07/14 03:58:25;;;;;;;0.10;0.10;;;11.80;99.90;;;;;;4928697;29;20043;-69
2022/07/14 04:00:51;;;;;;;;;;;11.80;99.90;;;;;;4924857;29;20062;-68
2022/07/14 04:03:16;;;;;;;0.28;0.20;;;11.80;99.90;;;;;;4900481;29;19918;-68
2022/07/14 04:05:43;;;;;;;0.10;0.10;;;11.80;99.90;;;;;;4915079;29;20388;-69
2022/07/14 04:08:09;;;;;;;;;;;11.80;99.90;;;;;;4920466;28;20067;-77
2022/07/14 04:10:35;;;;;;;0.20;0.10;;;11.80;99.90;;;;;;4920796;29;19970;-69
2022/07/14 04:13:01;;;;;;;0.10;0.10;;;11.80;99.90;;;;;;4919571;29;20098;-68
2022/07/14 04:15:28;;;;;;;0.22;0.10;;;11.80;99.90;;;;;;4901350;29;20040;-69
2022/07/14 04:17:55;;;;;;;0.15;0.10;;;11.90;99.90;;;;;;4910617;29;20055;-69
2022/07/14 04:20:21;;;;;;;0.15;0.00;;;11.90;99.90;;;;;;4943410;28;20048;-68
2022/07/14 04:22:48;;;;;;;0.10;0.10;;;11.80;99.90;;;;;;4921152;29;20054;-68
2022/07/14 04:25:14;;;;;;;0.00;0.00;;;11.90;99.90;;;;;;4920021;29;20051;-69
2022/07/14 04:27:40;;;;;;;0.32;0.10;;;11.90;99.90;;;;;;4921756;29;22207;-69
2022/07/14 04:30:11;;;;;;;0.10;0.10;;;11.90;99.90;;;;;;4925354;29;20455;-69
2022/07/14 04:32:37;;;;;;;0.28;0.13;;;12.00;99.90;;;;;;4917855;29;20082;-69
2022/07/14 04:35:04;;;;;;;0.22;0.10;;;12.10;99.90;;;;;;4928514;29;20148;-69
2022/07/14 04:37:30;;;;;;;0.57;0.20;;;12.10;99.90;;;;;;4922162;29;20094;-69
2022/07/14 04:39:56;;;;;;;0.20;0.10;;;12.20;99.90;;;;;;4914892;29;20048;-68
2022/07/14 04:42:22;;;;;;;0.10;0.10;;;12.20;99.90;;;;;;4918562;29;20447;-69
2022/07/14 04:44:48;;;;;;;0.20;0.17;;;12.30;99.90;;;;;;4920796;29;20040;-68
2022/07/14 04:47:15;;;;;;;1.45;0.20;;;12.40;99.90;;;;;;4919135;29;20170;-68
2022/07/14 04:52:25;;;;;;;0.22;0.10;;;12.50;99.90;;;;;;4919333;29;20056;-69
2022/07/14 04:54:52;;;;;;;0.10;0.00;;;12.50;99.90;;;;;;4917611;29;20167;-69
2022/07/14 04:57:18;;;;;;;;;;;12.50;99.90;;;;;;4923841;29;20052;-68
2022/07/14 04:59:45;;;;;;;0.00;0.00;;;12.60;99.90;;;;;;4920311;29;19978;-69
2022/07/14 05:02:10;;;;;;;;;;;12.50;99.90;;;;;;4926319;29;20299;-69
2022/07/14 05:04:36;;;;;;;0.65;0.30;;;12.60;99.90;;;;;;4918633;29;20425;-68
2022/07/14 05:07:02;;;;;;;0.20;0.20;;;12.60;99.90;;;;;;4922394;29;20039;-69
2022/07/14 05:09:34;;;;;;;0.28;0.20;;;12.60;99.90;;;;;;4917512;29;20071;-69
2022/07/14 05:12:02;;;;;;;0.55;0.20;;;12.60;99.90;;;;;;4921506;29;20039;-68
2022/07/14 05:14:31;;;;;;;0.80;0.35;;;12.70;99.90;;;;;;4919078;29;20040;-68
2022/07/14 05:16:57;;;;;;;0.38;0.15;;;12.70;99.90;;;;;;4922054;29;20063;-69
2022/07/14 05:19:23;;;;;;;0.35;0.20;;;12.70;99.90;;;;;;4917456;29;20488;-68
2022/07/14 05:21:49;;;;;;;0.10;0.10;;;12.80;99.90;;;;;;4919498;29;20043;-68
2022/07/14 05:24:15;;;;;;;0.15;0.10;;;12.80;99.90;;;;;;4914760;29;20103;-68
2022/07/14 05:26:41;;;;;;;;;;;12.90;99.90;;;;;;4919182;29;20119;-68
2022/07/14 05:29:06;;;;;;;0.10;0.10;;;13.00;99.90;;;;;;4922126;29;20013;-70
2022/07/14 05:31:33;;;;;;;1.98;0.50;;;13.00;99.90;;;;;;4920216;29;20058;-69
2022/07/14 05:33:58;;;;;;;0.63;0.20;;;13.20;99.90;;;;;;4907367;29;20047;-69
2022/07/14 05:36:25;;;;;;;0.50;0.28;;;13.30;99.90;;;;;;4922220;29;20052;-69
2022/07/14 05:38:51;;;;;;;0.80;0.30;;;13.30;99.90;;;;;;4927280;29;20048;-69
2022/07/14 05:41:19;;;;;;;;;;;13.30;99.90;;;;;;4921102;29;20036;-69
2022/07/14 05:43:46;;;;;;;1.13;0.32;;;13.40;99.90;;;;;;4920951;29;19961;-69
2022/07/14 05:46:13;;;;;;;0.70;0.30;;;13.50;99.90;;;;;;4917211;29;20051;-69
2022/07/14 05:48:38;;;;;;;;;;;13.70;99.90;;;;;;4923974;29;20496;-68
2022/07/14 05:51:08;;;;;;;0.35;0.20;;;13.80;99.90;;;;;;4912856;29;19965;-69
2022/07/14 05:53:35;;;;;;;0.63;0.20;;;13.90;99.90;;;;;;4923101;29;20138;-68
2022/07/14 05:56:02;;;;;;;0.20;0.20;;;14.10;99.90;;;;;;4921358;29;20058;-68
2022/07/14 05:58:29;;;;;;;0.35;0.10;;;14.20;99.90;;;;;;4919223;29;20044;-68
2022/07/14 06:00:55;;;;;;;;;;;14.30;99.90;;;;;;4921775;29;20094;-68
2022/07/14 06:03:20;;;;;;;1.27;0.30;;;14.50;99.90;;;;;;4926585;29;19922;-68
2022/07/14 06:05:46;;;;;;;2.25;0.77;;;14.60;99.90;;;;;;4916457;29;20044;-68
2022/07/14 06:08:12;;;;;;;1.95;0.60;;;14.70;99.90;;;;;;4917604;29;20032;-68
2022/07/14 06:10:38;;;;;;;2.35;0.47;;;14.90;99.90;;;;;;4918630;29;20415;-68
2022/07/14 06:13:04;;;;;;;1.48;0.57;;;15.10;99.90;;;;;;4919471;29;20151;-76
2022/07/14 06:15:30;;;;;;;2.28;0.50;;;15.20;99.90;;;;;;4912478;29;20058;-69
2022/07/14 06:17:56;;;;;;;0.43;0.17;;;15.40;99.90;;;;;;4925578;29;20048;-68
2022/07/14 06:20:22;;;;;;;1.50;0.50;;;15.60;99.90;;;;;;4921125;29;20566;-68
2022/07/14 06:22:49;;;;;;;1.20;0.50;;;15.70;99.90;;;;;;4923181;29;20121;-76
2022/07/14 06:25:15;;;;;;;1.30;0.43;;;15.90;99.90;;;;;;4919477;29;20768;-75
2022/07/14 06:27:41;;;;;;;1.35;0.47;;;16.00;99.90;;;;;;4927265;29;20099;-76
2022/07/14 06:30:08;;;;;;;1.35;0.50;;;16.10;99.90;;;;;;4923583;29;20058;-75
2022/07/14 06:32:39;;;;;;;1.73;0.68;;;16.30;99.90;;;;;;4927032;29;20058;-75
2022/07/14 06:35:06;;;;;;;2.83;0.60;;;16.30;99.90;;;;;;4922496;29;20086;-76
2022/07/14 06:37:34;;;;;;;0.93;0.30;;;16.40;99.90;;;;;;4923419;29;20056;-76
2022/07/14 06:40:04;;;;;;;1.23;0.45;;;16.40;99.90;;;;;;4924893;29;20095;-75
2022/07/14 06:42:29;;;;;;;1.75;0.40;;;16.50;99.90;;;;;;4922632;29;20095;-75
2022/07/14 06:44:55;;;;;;;2.35;0.50;;;16.50;99.90;;;;;;4921664;29;20048;-69
2022/07/14 06:47:21;;;;;;;1.83;0.57;;;16.50;99.90;;;;;;4923664;29;20134;-69
2022/07/14 06:49:47;;;;;;;0.90;0.30;;;16.50;99.90;;;;;;4919577;29;20036;-74
2022/07/14 06:52:12;;;;;;;1.65;0.45;;;16.60;99.90;;;;;;4925416;29;20138;-74
2022/07/14 06:54:38;;;;;;;1.80;0.52;;;16.70;99.90;;;;;;4920392;29;20464;-75
2022/07/14 06:57:04;;;;;;;3.53;0.60;;;16.70;99.90;;;;;;4924782;29;20599;-75
2022/07/14 06:59:30;;;;;;;2.47;0.75;;;16.70;99.90;;;;;;4921424;29;20552;-75
2022/07/14 07:01:56;;;;;;;2.35;0.50;;;16.80;99.90;;;;;;4937478;29;20086;-75
2022/07/14 07:04:23;;;;;;;4.28;0.82;;;16.80;99.90;;;;;;4940971;28;20091;-75
2022/07/14 07:06:50;;;;;;;1.48;0.50;;;16.70;99.90;;;;;;4927725;29;20048;-75
2022/07/14 07:09:17;;;;;;;2.45;0.60;;;16.70;99.90;;;;;;4928180;29;20051;-75
2022/07/14 07:11:45;;;;;;;1.55;0.60;;;16.80;99.90;;;;;;4929196;29;20503;-75
2022/07/14 07:14:11;;;;;;;3.35;0.52;;;16.90;99.90;;;;;;4913173;29;20557;-75
2022/07/14 07:16:37;;;;;;;2.20;0.60;;;16.90;99.90;;;;;;4928006;29;20075;-75
2022/07/14 07:19:03;;;;;;;1.58;0.50;;;17.20;99.90;;;;;;4942422;28;20190;-75
2022/07/14 07:21:29;;;;;;;1.42;0.57;;;17.30;99.90;;;;;;4926432;29;20046;-76
2022/07/14 07:23:56;;;;;;;3.20;0.50;;;17.20;99.90;;;;;;4929767;29;20031;-75
2022/07/14 07:26:24;;;;;;;;;;;17.00;99.90;;;;;;4912740;29;20122;-76
2022/07/14 07:28:54;;;;;;;1.95;0.57;;;17.00;99.90;;;;;;4926932;29;19941;-76
2022/07/14 07:31:20;;;;;;;1.25;0.40;;;17.10;99.90;;;;;;4928940;29;20050;-76
2022/07/14 07:33:47;;;;;;;2.13;0.50;;;17.30;99.90;;;;;;4929177;29;20467;-75
2022/07/14 07:36:18;;;;;;;1.27;0.50;;;17.20;99.90;;;;;;4914507;28;20059;-70
2022/07/14 07:38:44;;;;;;;1.75;0.43;;;17.30;99.90;;;;;;4927711;28;20036;-69
2022/07/14 07:41:10;;;;;;;0.68;0.30;;;17.30;99.90;;;;;;4925580;29;20143;-69
2022/07/14 07:43:36;;;;;;;0.75;0.45;;;17.50;99.90;;;;;;4929163;29;20055;-69
2022/07/14 07:46:03;;;;;;;0.57;0.20;;;17.60;99.90;;;;;;4933576;29;20485;-69
2022/07/14 07:48:29;;;;;;;1.65;0.68;;;17.80;99.90;;;;;;4945829;28;20126;-69
2022/07/14 07:50:55;;;;;;;1.75;0.50;;;17.80;99.90;;;;;;4930634;28;20102;-75
2022/07/14 07:53:22;;;;;;;1.48;0.30;;;17.80;99.90;;;;;;4952120;28;20043;-75
2022/07/14 07:55:47;;;;;;;;;;;18.00;99.90;;;;;;4934940;28;20043;-76
2022/07/14 07:58:13;;;;;;;1.08;0.40;;;18.10;99.90;;;;;;4932240;29;19926;-75
2022/07/14 08:00:39;;;;;;;1.92;0.50;;;18.20;99.90;;;;;;4918446;28;20144;-75
2022/07/14 08:03:05;;;;;;;;;;;18.30;99.90;;;;;;4953557;28;20407;-69
2022/07/14 08:05:32;;;;;;;2.42;0.50;;;18.40;99.90;;;;;;4938660;28;19942;-69
2022/07/14 08:07:58;;;;;;;0.65;0.20;;;18.60;99.90;;;;;;4933512;28;20035;-69
2022/07/14 08:10:24;;;;;;;1.00;0.20;;;18.80;99.90;;;;;;4937825;29;20385;-68
2022/07/14 08:12:50;;;;;;;;;;;19.00;99.90;;;;;;4954771;29;20109;-69
2022/07/14 08:15:16;;;;;;;0.80;0.40;;;18.80;99.90;;;;;;4937872;29;19926;-70
2022/07/14 08:17:42;;;;;;;;;;;18.70;99.90;;;;;;4937321;29;20043;-69
2022/07/14 08:20:09;;;;;;;0.93;0.20;;;18.70;99.90;;;;;;4935920;29;19929;-69
2022/07/14 08:22:36;;;;;;;0.47;0.22;;;18.90;99.90;;;;;;4937044;29;20091;-69
2022/07/14 08:25:03;;;;;;;0.43;0.10;;;19.00;99.90;;;;;;4933159;29;20051;-68
2022/07/14 08:27:29;;;;;;;1.25;0.40;;;19.00;99.90;;;;;;4937634;29;20058;-69
2022/07/14 08:29:55;;;;;;;;;;;19.00;99.90;;;;;;4932807;29;20117;-69
2022/07/14 08:32:41;;;;;;;1.33;0.40;;;19.00;99.90;;;;;;4936949;29;20311;-69
2022/07/14 08:35:09;;;;;;;0.73;0.20;;;19.30;99.90;;;;;;4927768;28;20435;-67
2022/07/14 08:37:36;;;;;;;1.00;0.30;;;19.40;99.90;;;;;;4929807;29;20044;-67
2022/07/14 08:40:05;;;;;;;1.38;0.40;;;19.30;99.90;;;;;;4933031;28;20380;-67
2022/07/14 08:42:32;;;;;;;2.72;0.45;;;19.50;99.90;;;;;;4932316;29;20051;-68
2022/07/14 08:44:59;;;;;;;3.05;0.55;;;19.30;99.90;;;;;;4936084;29;20142;-68
2022/07/14 08:47:25;;;;;;;1.65;0.30;;;19.10;99.90;;;;;;4934982;29;20371;-70
2022/07/14 08:49:51;;;;;;;1.38;0.60;;;19.00;99.90;;;;;;4935798;28;20546;-70
2022/07/14 08:52:17;;;;;;;;;;;19.00;99.90;;;;;;4954171;28;20042;-69
2022/07/14 08:54:45;;;;;;;2.17;0.60;;;18.90;99.90;;;;;;4935922;29;19962;-69
2022/07/14 08:57:11;;;;;;;1.42;0.30;;;19.00;99.90;;;;;;4936585;29;20092;-68
2022/07/14 08:59:38;;;;;;;0.80;0.30;;;19.00;99.90;;;;;;4920262;29;20043;-68
2022/07/14 09:02:04;;;;;;;1.05;0.40;;;19.10;99.90;;;;;;4933297;29;20150;-68
2022/07/14 09:04:29;;;;;;;;;;;19.10;99.90;;;;;;4933431;29;20134;-68
2022/07/14 09:06:55;;;;;;;2.25;0.63;;;19.40;99.90;;;;;;4931342;29;19975;-68
2022/07/14 09:09:30;;;;;;;;;;;19.20;99.90;;;;;;4918043;29;20062;-69
2022/07/14 09:12:01;;;;;;;1.20;0.52;;;19.40;99.90;;;;;;4930273;29;19918;-69
2022/07/14 09:15:44;;;;;;;2.58;0.50;;;19.30;99.90;;;;;;4930373;29;20039;-69
2022/07/14 09:17:17;;;;;;;1.67;0.47;;;19.30;99.90;;;;;;4927669;29;20126;-67
2022/07/14 09:20:07;;;;;;;1.48;0.50;;;19.30;99.90;;;;;;4934638;29;20119;-69
2022/07/14 09:22:36;;;;;;;1.88;0.60;;;18.90;99.90;;;;;;4928292;29;20047;-69
2022/07/14 09:25:05;;;;;;;1.00;0.40;;;18.80;99.90;;;;;;4927480;29;20047;-69
2022/07/14 09:27:31;;;;;;;1.13;0.30;;;19.00;99.90;;;;;;4929428;29;20043;-69
2022/07/14 09:29:57;;;;;;;1.52;0.40;;;19.10;99.90;;;;;;4936445;29;20055;-69
2022/07/14 09:32:41;;;;;;;;;;;19.00;99.90;;;;;;4903269;29;20050;-75
2022/07/14 09:35:07;;;;;;;1.05;0.30;;;19.20;99.90;;;;;;4934541;29;19929;-74
2022/07/14 09:37:33;;;;;;;1.48;0.30;;;19.80;99.90;;;;;;4933897;29;20061;-75
2022/07/14 09:39:59;;;;;;;;;;;20.20;99.90;;;;;;4918384;29;20500;-74
2022/07/14 09:42:57;;;;;;;3.72;0.50;;;20.10;99.90;;;;;;4934055;29;19981;-75
2022/07/14 09:45:24;;;;;;;;;;;20.30;99.30;;;;;;4929225;29;20031;-74
2022/07/14 09:48:07;;;;;;;1.50;0.50;;;20.10;99.60;;;;;;4931790;29;19923;-75
2022/07/14 09:50:43;;;;;;;1.08;0.30;;;20.10;99.90;;;;;;4933285;29;20047;-75
2022/07/14 09:53:10;;;;;;;1.08;0.40;;;20.50;99.90;;;;;;4931040;29;20051;-75
2022/07/14 09:55:36;;;;;;;1.42;0.35;;;20.70;99.90;;;;;;4929609;29;20047;-75
2022/07/14 09:58:03;;;;;;;1.50;0.32;;;20.70;99.70;;;;;;4931781;29;20055;-75
2022/07/14 10:00:29;;;;;;;0.85;0.30;;;20.70;99.90;;;;;;4931050;29;20048;-74
2022/07/14 10:02:55;;;;;;;0.63;0.20;;;20.70;99.90;;;;;;4926260;29;20055;-74
2022/07/14 10:05:21;;;;;;;1.48;0.45;;;20.70;99.60;;;;;;4926935;29;20052;-75
2022/07/14 10:07:49;;;;;;;1.58;0.43;;;20.60;98.70;;;;;;4932711;29;20075;-76
2022/07/14 10:10:16;;;;;;;1.73;0.50;;;20.40;99.90;;;;;;4930991;29;20163;-75
2022/07/14 10:12:42;;;;;;;1.35;0.50;;;20.40;99.90;;;;;;4932943;29;20119;-75
2022/07/14 10:15:10;;;;;;;1.27;0.30;;;20.30;99.90;;;;;;4937581;29;20459;-75
2022/07/14 10:17:38;;;;;;;0.75;0.30;;;20.30;99.90;;;;;;4928714;29;20142;-75
2022/07/14 10:20:06;;;;;;;1.83;0.40;;;20.30;99.90;;;;;;4925870;29;20051;-75
2022/07/14 10:22:32;;;;;;;1.35;0.50;;;20.50;99.90;;;;;;4917303;29;20036;-75
2022/07/14 10:24:58;;;;;;;0.85;0.40;;;20.10;99.90;;;;;;4930775;29;20152;-75
2022/07/14 10:27:27;;;;;;;2.05;0.43;;;19.80;99.90;;;;;;4928271;29;20079;-75
2022/07/14 10:29:54;;;;;;;1.33;0.40;;;19.60;99.90;;;;;;4910305;29;20130;-75
2022/07/14 10:32:35;;;;;;;1.65;0.38;;;19.60;99.90;;;;;;4924557;29;20573;-75
2022/07/14 10:35:28;;;;;;;1.15;0.35;;;19.90;99.90;;;;;;4910950;29;21238;-75
2022/07/14 10:38:18;;;;;;;1.45;0.40;;;20.50;99.90;;;;;;4934058;29;20055;-75
2022/07/14 10:40:56;;;;;;;0.63;0.35;;;20.60;98.20;;;;;;4941899;29;20123;-75
2022/07/14 10:43:38;;;;;;;2.65;0.52;;;20.70;99.40;;;;;;4924703;29;20044;-75
2022/07/14 10:46:04;;;;;;;2.53;0.38;;;20.30;98.50;;;;;;4930472;29;20043;-75
2022/07/14 10:48:32;;;;;;;0.90;0.40;;;20.10;98.60;;;;;;4926736;29;20720;-74
2022/07/14 10:51:14;;;;;;;1.65;0.30;;;20.00;99.10;;;;;;4930017;29;20084;-75
2022/07/14 10:53:58;;;;;;;1.55;0.50;;;19.90;99.90;;;;;;4928904;29;20369;-74
2022/07/14 10:56:28;;;;;;;1.13;0.50;;;19.70;99.90;;;;;;4929558;29;20096;-75
2022/07/14 10:59:25;;;;;;;1.52;0.30;;;19.60;99.90;;;;;;4926117;29;20040;-74
2022/07/14 11:02:13;;;;;;;2.03;0.70;;;19.40;99.90;;;;;;4929666;29;20094;-75
2022/07/14 11:05:00;;;;;;;2.30;0.40;;;19.30;99.90;;;;;;4924412;29;20044;-75
2022/07/14 11:07:35;;;;;;;1.88;0.50;;;19.30;99.90;;;;;;4925267;29;20047;-74
2022/07/14 11:10:24;;;;;;;1.40;0.50;;;19.40;99.90;;;;;;4928639;29;20163;-74
2022/07/14 11:13:05;;;;;;;1.98;0.43;;;19.40;99.90;;;;;;4926896;29;20043;-74
2022/07/14 11:15:52;;;;;;;1.83;0.50;;;19.60;99.90;;;;;;4923852;29;20048;-74
2022/07/14 11:18:18;;;;;;;1.20;0.30;;;19.40;99.90;;;;;;4931403;29;20439;-74
2022/07/14 11:20:47;;;;;;;;;;;19.20;99.90;;;;;;4935494;29;20091;-75
2022/07/14 11:23:21;;;;;;;2.78;0.52;;;19.30;99.90;;;;;;4923442;29;19919;-75
2022/07/14 11:25:48;;;;;;;1.23;0.20;;;19.40;99.90;;;;;;4929409;29;20052;-75
2022/07/14 11:28:47;;;;;;;4.13;0.98;;;19.60;99.90;;;;;;4935878;29;20427;-75
2022/07/14 11:31:23;;;;;;;1.33;0.40;;;19.40;99.90;;;;;;4932854;29;20781;-75
2022/07/14 11:36:44;;;;;;;1.65;0.50;;;20.10;99.30;;;;;;4935993;29;20127;-75
2022/07/14 11:39:16;;;;;;;1.05;0.30;;;20.60;99.70;;;;;;4931401;29;20135;-75
2022/07/14 11:42:06;;;;;;;0.82;0.38;;;21.10;99.40;;;;;;4926741;29;20130;-75
2022/07/14 11:44:35;;;;;;;1.13;0.35;;;21.40;97.70;;;;;;4927993;29;20055;-75
2022/07/14 11:47:03;;;;;;;2.17;0.50;;;21.30;96.70;;;;;;4927456;29;20559;-74
2022/07/14 11:49:30;;;;;;;1.60;0.40;;;21.40;95.00;;;;;;4927325;28;20048;-75
2022/07/14 11:51:57;;;;;;;2.63;0.73;;;21.00;95.80;;;;;;4929309;29;20057;-75
2022/07/14 11:54:25;;;;;;;2.22;0.40;;;20.70;95.80;;;;;;4934684;29;20052;-75
2022/07/14 11:57:07;;;;;;;1.98;0.47;;;20.50;96.60;;;;;;4932470;29;20159;-75
2022/07/14 11:59:39;;;;;;;1.75;0.45;;;20.60;99.50;;;;;;4930886;29;20127;-75
2022/07/14 12:02:20;;;;;;;0.98;0.35;;;20.30;99.70;;;;;;4931157;29;20052;-76
2022/07/14 12:04:58;;;;;;;1.00;0.30;;;20.40;98.80;;;;;;4931479;29;20052;-75
2022/07/14 12:07:45;;;;;;;1.92;0.50;;;20.20;99.20;;;;;;4933399;29;20523;-75
2022/07/14 12:10:12;;;;;;;1.58;0.43;;;20.20;99.90;;;;;;4915654;29;20066;-75
2022/07/14 12:12:44;;;;;;;1.63;0.40;;;20.10;99.90;;;;;;4931201;29;20060;-75
2022/07/14 12:15:11;;;;;;;2.03;0.50;;;20.00;99.90;;;;;;4932217;29;20048;-76
2022/07/14 12:17:52;;;;;;;2.80;0.50;;;20.00;99.90;;;;;;4947888;28;20055;-75
2022/07/14 12:20:18;;;;;;;2.10;0.60;;;19.90;99.90;;;;;;4928610;29;20043;-75
2022/07/14 12:22:45;;;;;;;1.90;0.47;;;19.90;99.90;;;;;;4933015;29;20040;-75
2022/07/14 12:25:34;;;;;;;1.75;0.28;;;20.10;99.90;;;;;;4917746;29;20119;-75
2022/07/14 12:28:09;;;;;;;0.90;0.30;;;20.30;99.90;;;;;;4933049;29;20063;-75
2022/07/14 12:30:45;;;;;;;1.33;0.57;;;20.50;99.90;;;;;;4932817;29;20051;-75
2022/07/14 12:33:22;;;;;;;1.30;0.40;;;20.30;99.90;;;;;;4931862;29;20043;-75
2022/07/14 12:35:50;;;;;;;;;;;20.10;99.90;;;;;;4932855;29;20044;-75
2022/07/14 12:38:19;;;;;;;1.35;0.40;;;20.20;99.90;;;;;;4928748;29;19923;-75
2022/07/14 12:40:48;;;;;;;0.82;0.38;;;20.30;99.90;;;;;;4932880;29;20592;-75
2022/07/14 12:43:43;;;;;;;1.45;0.50;;;20.30;99.90;;;;;;4925468;29;20044;-70
2022/07/14 12:46:08;;;;;;;1.77;0.40;;;19.90;99.90;;;;;;4911644;29;20803;-70
2022/07/14 12:48:35;;;;;;;;;;;19.70;99.90;;;;;;4933528;29;20063;-70
2022/07/14 12:51:30;;;;;;;1.25;0.50;;;19.50;99.90;;;;;;4930364;29;19926;-69
2022/07/14 12:54:22;;;;;;;1.52;0.50;;;19.40;99.90;;;;;;4925097;29;20411;-71
2022/07/14 12:56:52;;;;;;;1.10;0.45;;;19.40;99.90;;;;;;4903238;29;20087;-69
2022/07/14 12:59:26;;;;;;;1.02;0.30;;;19.30;99.90;;;;;;4931478;29;20044;-69
2022/07/14 13:02:18;;;;;;;1.15;0.40;;;19.40;99.90;;;;;;4923790;29;20139;-69
2022/07/14 13:04:49;;;;;;;1.10;0.40;;;19.50;99.90;;;;;;4933161;29;20079;-69
2022/07/14 13:07:20;;;;;;;1.58;0.65;;;20.00;98.90;;;;;;4933133;29;20036;-74
2022/07/14 13:10:19;;;;;;;1.80;0.30;;;20.70;98.90;;;;;;4930836;29;20040;-74
2022/07/14 13:12:50;;;;;;;2.17;0.43;;;20.60;97.40;;;;;;4931311;29;20114;-74